sensor_id;sensor_type;location;lat;lon;timestamp;P1;durP1;ratioP1;P2;durP2;ratioP2
51332;SDS011;37417;48.118;11.734;2023-09-12T00:00:50;8.50;;;7.05;;
51332;SDS011;37417;48.118;11.734;2023-09-12T00:03:36;9.73;;;7.03;;
51332;SDS011;37417;48.118;11.734;2023-09-12T00:06:22;9.77;;;6.80;;
51332;SDS011;37417;48.118;11.734;2023-09-12T00:09:08;8.15;;;6.80;;
51332;SDS011;37417;48.118;11.734;2023-09-12T00:11:54;8.57;;;7.25;;
51332;SDS011;37417;48.118;11.734;2023-09-12T00:14:40;7.68;;;6.82;;
51332;SDS011;37417;48.118;11.734;2023-09-12T00:17:26;11.68;;;7.32;;
51332;SDS011;37417;48.118;11.734;2023-09-12T00:20:12;8.80;;;6.35;;
51332;SDS011;37417;48.118;11.734;2023-09-12T00:22:57;8.63;;;6.90;;
51332;SDS011;37417;48.118;11.734;2023-09-12T00:25:43;7.28;;;6.50;;
51332;SDS011;37417;48.118;11.734;2023-09-12T00:28:29;8.80;;;6.93;;
51332;SDS011;37417;48.118;11.734;2023-09-12T00:31:15;8.00;;;7.20;;
51332;SDS011;37417;48.118;11.734;2023-09-12T00:34:00;8.10;;;6.30;;
51332;SDS011;37417;48.118;11.734;2023-09-12T00:36:46;7.05;;;6.30;;
51332;SDS011;37417;48.118;11.734;2023-09-12T00:39:32;9.60;;;7.25;;
51332;SDS011;37417;48.118;11.734;2023-09-12T00:42:17;7.53;;;6.75;;
51332;SDS011;37417;48.118;11.734;2023-09-12T00:45:03;7.60;;;6.43;;
51332;SDS011;37417;48.118;11.734;2023-09-12T00:47:49;7.25;;;6.03;;
51332;SDS011;37417;48.118;11.734;2023-09-12T00:50:34;12.63;;;7.80;;
51332;SDS011;37417;48.118;11.734;2023-09-12T00:53:22;11.52;;;7.50;;
51332;SDS011;37417;48.118;11.734;2023-09-12T00:56:07;7.88;;;7.00;;
51332;SDS011;37417;48.118;11.734;2023-09-12T00:58:53;9.55;;;6.20;;
51332;SDS011;37417;48.118;11.734;2023-09-12T01:01:39;9.20;;;6.80;;
51332;SDS011;37417;48.118;11.734;2023-09-12T01:04:26;7.78;;;6.38;;
51332;SDS011;37417;48.118;11.734;2023-09-12T01:07:12;10.65;;;6.00;;
51332;SDS011;37417;48.118;11.734;2023-09-12T01:09:58;8.85;;;7.20;;
51332;SDS011;37417;48.118;11.734;2023-09-12T01:12:44;10.40;;;7.35;;
51332;SDS011;37417;48.118;11.734;2023-09-12T01:15:30;10.13;;;6.70;;
51332;SDS011;37417;48.118;11.734;2023-09-12T01:18:15;7.90;;;6.60;;
51332;SDS011;37417;48.118;11.734;2023-09-12T01:21:08;7.35;;;6.65;;
51332;SDS011;37417;48.118;11.734;2023-09-12T01:24:22;7.70;;;5.75;;
51332;SDS011;37417;48.118;11.734;2023-09-12T01:27:22;6.90;;;6.20;;
51332;SDS011;37417;48.118;11.734;2023-09-12T01:30:13;10.13;;;6.97;;
51332;SDS011;37417;48.118;11.734;2023-09-12T01:33:03;7.85;;;6.45;;
51332;SDS011;37417;48.118;11.734;2023-09-12T01:35:49;9.48;;;6.43;;
51332;SDS011;37417;48.118;11.734;2023-09-12T01:38:34;8.40;;;6.05;;
51332;SDS011;37417;48.118;11.734;2023-09-12T01:41:20;9.63;;;6.25;;
51332;SDS011;37417;48.118;11.734;2023-09-12T01:44:06;10.43;;;6.50;;
51332;SDS011;37417;48.118;11.734;2023-09-12T01:46:54;11.85;;;6.10;;
51332;SDS011;37417;48.118;11.734;2023-09-12T01:49:44;9.02;;;5.97;;
51332;SDS011;37417;48.118;11.734;2023-09-12T01:52:32;6.95;;;5.70;;
51332;SDS011;37417;48.118;11.734;2023-09-12T01:55:18;7.40;;;6.28;;
51332;SDS011;37417;48.118;11.734;2023-09-12T01:58:04;8.07;;;6.65;;
51332;SDS011;37417;48.118;11.734;2023-09-12T02:00:50;6.82;;;6.18;;
51332;SDS011;37417;48.118;11.734;2023-09-12T02:03:35;8.50;;;5.53;;
51332;SDS011;37417;48.118;11.734;2023-09-12T02:06:21;8.02;;;6.30;;
51332;SDS011;37417;48.118;11.734;2023-09-12T02:09:07;8.93;;;6.32;;
51332;SDS011;37417;48.118;11.734;2023-09-12T02:11:52;8.43;;;6.07;;
51332;SDS011;37417;48.118;11.734;2023-09-12T02:14:38;9.25;;;6.30;;
51332;SDS011;37417;48.118;11.734;2023-09-12T02:17:24;6.60;;;5.65;;
51332;SDS011;37417;48.118;11.734;2023-09-12T02:20:09;11.38;;;7.10;;
51332;SDS011;37417;48.118;11.734;2023-09-12T02:22:56;8.15;;;6.15;;
51332;SDS011;37417;48.118;11.734;2023-09-12T02:25:42;10.15;;;6.22;;
51332;SDS011;37417;48.118;11.734;2023-09-12T02:28:27;8.48;;;6.40;;
51332;SDS011;37417;48.118;11.734;2023-09-12T02:31:13;9.57;;;6.68;;
51332;SDS011;37417;48.118;11.734;2023-09-12T02:33:59;8.15;;;6.53;;
51332;SDS011;37417;48.118;11.734;2023-09-12T02:36:44;10.88;;;7.05;;
51332;SDS011;37417;48.118;11.734;2023-09-12T02:39:30;11.60;;;6.32;;
51332;SDS011;37417;48.118;11.734;2023-09-12T02:42:16;9.43;;;6.43;;
51332;SDS011;37417;48.118;11.734;2023-09-12T02:45:01;9.00;;;6.15;;
51332;SDS011;37417;48.118;11.734;2023-09-12T02:47:47;6.75;;;6.05;;
51332;SDS011;37417;48.118;11.734;2023-09-12T02:50:33;8.75;;;5.72;;
51332;SDS011;37417;48.118;11.734;2023-09-12T02:53:18;8.93;;;6.53;;
51332;SDS011;37417;48.118;11.734;2023-09-12T02:56:04;8.20;;;6.50;;
51332;SDS011;37417;48.118;11.734;2023-09-12T02:58:50;6.25;;;5.65;;
51332;SDS011;37417;48.118;11.734;2023-09-12T03:01:35;6.68;;;6.03;;
51332;SDS011;37417;48.118;11.734;2023-09-12T03:04:21;10.82;;;6.95;;
51332;SDS011;37417;48.118;11.734;2023-09-12T03:07:07;8.05;;;6.15;;
51332;SDS011;37417;48.118;11.734;2023-09-12T03:09:52;7.95;;;6.63;;
51332;SDS011;37417;48.118;11.734;2023-09-12T03:12:38;7.15;;;6.40;;
51332;SDS011;37417;48.118;11.734;2023-09-12T03:15:24;7.53;;;6.28;;
51332;SDS011;37417;48.118;11.734;2023-09-12T03:18:09;8.20;;;6.13;;
51332;SDS011;37417;48.118;11.734;2023-09-12T03:20:55;7.85;;;6.18;;
51332;SDS011;37417;48.118;11.734;2023-09-12T03:23:41;8.05;;;6.30;;
51332;SDS011;37417;48.118;11.734;2023-09-12T03:26:26;7.90;;;5.90;;
51332;SDS011;37417;48.118;11.734;2023-09-12T03:29:12;9.05;;;6.32;;
51332;SDS011;37417;48.118;11.734;2023-09-12T03:31:58;8.23;;;7.10;;
51332;SDS011;37417;48.118;11.734;2023-09-12T03:34:43;7.10;;;6.05;;
51332;SDS011;37417;48.118;11.734;2023-09-12T03:37:29;7.28;;;6.53;;
51332;SDS011;37417;48.118;11.734;2023-09-12T03:40:15;9.02;;;7.45;;
51332;SDS011;37417;48.118;11.734;2023-09-12T03:43:00;11.00;;;6.72;;
51332;SDS011;37417;48.118;11.734;2023-09-12T03:45:46;8.88;;;6.78;;
51332;SDS011;37417;48.118;11.734;2023-09-12T03:48:32;9.25;;;6.82;;
51332;SDS011;37417;48.118;11.734;2023-09-12T03:51:18;8.45;;;7.07;;
51332;SDS011;37417;48.118;11.734;2023-09-12T03:54:03;8.88;;;6.60;;
51332;SDS011;37417;48.118;11.734;2023-09-12T03:56:49;10.13;;;7.13;;
51332;SDS011;37417;48.118;11.734;2023-09-12T03:59:35;11.80;;;7.53;;
51332;SDS011;37417;48.118;11.734;2023-09-12T04:02:21;9.45;;;7.13;;
51332;SDS011;37417;48.118;11.734;2023-09-12T04:05:07;8.60;;;7.07;;
51332;SDS011;37417;48.118;11.734;2023-09-12T04:07:52;11.45;;;7.13;;
51332;SDS011;37417;48.118;11.734;2023-09-12T04:10:38;8.50;;;7.40;;
51332;SDS011;37417;48.118;11.734;2023-09-12T04:13:24;8.10;;;6.82;;
51332;SDS011;37417;48.118;11.734;2023-09-12T04:16:09;6.68;;;5.93;;
51332;SDS011;37417;48.118;11.734;2023-09-12T04:18:55;11.48;;;7.28;;
51332;SDS011;37417;48.118;11.734;2023-09-12T04:21:41;9.02;;;7.35;;
51332;SDS011;37417;48.118;11.734;2023-09-12T04:24:27;8.77;;;7.50;;
51332;SDS011;37417;48.118;11.734;2023-09-12T04:27:12;9.48;;;6.85;;
51332;SDS011;37417;48.118;11.734;2023-09-12T04:29:58;11.50;;;7.25;;
51332;SDS011;37417;48.118;11.734;2023-09-12T04:32:44;10.45;;;7.03;;
51332;SDS011;37417;48.118;11.734;2023-09-12T04:35:32;10.88;;;7.88;;
51332;SDS011;37417;48.118;11.734;2023-09-12T04:38:18;8.32;;;6.78;;
51332;SDS011;37417;48.118;11.734;2023-09-12T04:41:05;8.82;;;6.90;;
51332;SDS011;37417;48.118;11.734;2023-09-12T04:43:51;11.80;;;7.18;;
51332;SDS011;37417;48.118;11.734;2023-09-12T04:46:37;14.65;;;6.80;;
51332;SDS011;37417;48.118;11.734;2023-09-12T04:49:23;9.60;;;6.78;;
51332;SDS011;37417;48.118;11.734;2023-09-12T04:52:08;8.73;;;6.78;;
51332;SDS011;37417;48.118;11.734;2023-09-12T04:54:54;7.40;;;6.60;;
51332;SDS011;37417;48.118;11.734;2023-09-12T04:57:40;10.60;;;7.53;;
51332;SDS011;37417;48.118;11.734;2023-09-12T05:00:25;12.63;;;7.60;;
51332;SDS011;37417;48.118;11.734;2023-09-12T05:03:11;8.43;;;6.88;;
51332;SDS011;37417;48.118;11.734;2023-09-12T05:05:57;7.80;;;6.95;;
51332;SDS011;37417;48.118;11.734;2023-09-12T05:08:43;8.95;;;6.47;;
51332;SDS011;37417;48.118;11.734;2023-09-12T05:11:29;9.73;;;6.32;;
51332;SDS011;37417;48.118;11.734;2023-09-12T05:14:14;7.28;;;5.75;;
51332;SDS011;37417;48.118;11.734;2023-09-12T05:17:00;8.23;;;6.30;;
51332;SDS011;37417;48.118;11.734;2023-09-12T05:19:47;8.98;;;6.18;;
51332;SDS011;37417;48.118;11.734;2023-09-12T05:22:32;8.57;;;6.07;;
51332;SDS011;37417;48.118;11.734;2023-09-12T05:25:18;8.98;;;5.90;;
51332;SDS011;37417;48.118;11.734;2023-09-12T05:28:04;6.15;;;5.55;;
51332;SDS011;37417;48.118;11.734;2023-09-12T05:30:50;7.18;;;5.68;;
51332;SDS011;37417;48.118;11.734;2023-09-12T05:33:35;8.48;;;6.05;;
51332;SDS011;37417;48.118;11.734;2023-09-12T05:36:21;7.80;;;5.60;;
51332;SDS011;37417;48.118;11.734;2023-09-12T05:39:07;9.80;;;6.18;;
51332;SDS011;37417;48.118;11.734;2023-09-12T05:41:52;9.57;;;5.55;;
51332;SDS011;37417;48.118;11.734;2023-09-12T05:44:38;7.55;;;5.40;;
51332;SDS011;37417;48.118;11.734;2023-09-12T05:47:29;5.97;;;5.20;;
51332;SDS011;37417;48.118;11.734;2023-09-12T05:50:15;9.15;;;5.40;;
51332;SDS011;37417;48.118;11.734;2023-09-12T05:53:00;5.63;;;4.88;;
51332;SDS011;37417;48.118;11.734;2023-09-12T05:55:46;7.93;;;5.15;;
51332;SDS011;37417;48.118;11.734;2023-09-12T05:58:32;6.97;;;5.22;;
51332;SDS011;37417;48.118;11.734;2023-09-12T06:01:19;6.53;;;5.00;;
51332;SDS011;37417;48.118;11.734;2023-09-12T06:04:05;9.48;;;6.05;;
51332;SDS011;37417;48.118;11.734;2023-09-12T06:06:51;5.57;;;4.97;;
51332;SDS011;37417;48.118;11.734;2023-09-12T06:09:37;5.45;;;4.95;;
51332;SDS011;37417;48.118;11.734;2023-09-12T06:12:22;5.05;;;4.43;;
51332;SDS011;37417;48.118;11.734;2023-09-12T06:15:09;7.47;;;5.13;;
51332;SDS011;37417;48.118;11.734;2023-09-12T06:17:55;7.60;;;5.22;;
51332;SDS011;37417;48.118;11.734;2023-09-12T06:20:40;5.75;;;4.70;;
51332;SDS011;37417;48.118;11.734;2023-09-12T06:23:27;6.22;;;4.90;;
51332;SDS011;37417;48.118;11.734;2023-09-12T06:26:13;6.20;;;5.15;;
51332;SDS011;37417;48.118;11.734;2023-09-12T06:28:59;7.72;;;5.00;;
51332;SDS011;37417;48.118;11.734;2023-09-12T06:31:44;9.02;;;4.80;;
51332;SDS011;37417;48.118;11.734;2023-09-12T06:34:30;8.38;;;5.07;;
51332;SDS011;37417;48.118;11.734;2023-09-12T06:37:16;7.03;;;5.07;;
51332;SDS011;37417;48.118;11.734;2023-09-12T06:40:01;5.90;;;4.80;;
51332;SDS011;37417;48.118;11.734;2023-09-12T06:42:49;7.72;;;4.65;;
51332;SDS011;37417;48.118;11.734;2023-09-12T06:45:34;8.02;;;4.60;;
51332;SDS011;37417;48.118;11.734;2023-09-12T06:48:23;4.78;;;4.38;;
51332;SDS011;37417;48.118;11.734;2023-09-12T06:51:09;5.07;;;4.57;;
51332;SDS011;37417;48.118;11.734;2023-09-12T06:53:55;6.57;;;4.68;;
51332;SDS011;37417;48.118;11.734;2023-09-12T06:56:41;7.47;;;4.82;;
51332;SDS011;37417;48.118;11.734;2023-09-12T06:59:27;5.95;;;4.90;;
51332;SDS011;37417;48.118;11.734;2023-09-12T07:02:13;6.47;;;4.72;;
51332;SDS011;37417;48.118;11.734;2023-09-12T07:04:59;5.97;;;4.70;;
51332;SDS011;37417;48.118;11.734;2023-09-12T07:07:44;6.53;;;4.32;;
51332;SDS011;37417;48.118;11.734;2023-09-12T07:10:30;5.30;;;4.50;;
51332;SDS011;37417;48.118;11.734;2023-09-12T07:13:16;5.63;;;4.80;;
51332;SDS011;37417;48.118;11.734;2023-09-12T07:16:02;6.82;;;4.85;;
51332;SDS011;37417;48.118;11.734;2023-09-12T07:18:49;6.05;;;4.95;;
51332;SDS011;37417;48.118;11.734;2023-09-12T07:21:35;6.43;;;4.82;;
51332;SDS011;37417;48.118;11.734;2023-09-12T07:24:24;6.82;;;4.57;;
51332;SDS011;37417;48.118;11.734;2023-09-12T07:27:10;7.20;;;4.78;;
51332;SDS011;37417;48.118;11.734;2023-09-12T07:29:56;4.88;;;4.35;;
51332;SDS011;37417;48.118;11.734;2023-09-12T07:32:42;4.93;;;4.45;;
51332;SDS011;37417;48.118;11.734;2023-09-12T07:35:27;5.45;;;4.95;;
51332;SDS011;37417;48.118;11.734;2023-09-12T07:38:13;5.65;;;4.43;;
51332;SDS011;37417;48.118;11.734;2023-09-12T07:41:02;5.20;;;4.40;;
51332;SDS011;37417;48.118;11.734;2023-09-12T07:43:48;8.00;;;4.60;;
51332;SDS011;37417;48.118;11.734;2023-09-12T07:46:40;7.53;;;4.45;;
51332;SDS011;37417;48.118;11.734;2023-09-12T07:49:25;5.00;;;4.20;;
51332;SDS011;37417;48.118;11.734;2023-09-12T07:52:11;5.55;;;4.93;;
51332;SDS011;37417;48.118;11.734;2023-09-12T07:55:00;5.63;;;4.68;;
51332;SDS011;37417;48.118;11.734;2023-09-12T07:57:46;5.00;;;4.40;;
51332;SDS011;37417;48.118;11.734;2023-09-12T08:00:31;5.55;;;4.25;;
51332;SDS011;37417;48.118;11.734;2023-09-12T08:03:17;5.45;;;4.78;;
51332;SDS011;37417;48.118;11.734;2023-09-12T08:06:03;4.70;;;4.00;;
51332;SDS011;37417;48.118;11.734;2023-09-12T08:08:49;5.18;;;4.10;;
51332;SDS011;37417;48.118;11.734;2023-09-12T08:11:34;5.50;;;4.35;;
51332;SDS011;37417;48.118;11.734;2023-09-12T08:14:20;5.30;;;4.32;;
51332;SDS011;37417;48.118;11.734;2023-09-12T08:17:09;9.23;;;4.68;;
51332;SDS011;37417;48.118;11.734;2023-09-12T08:19:55;6.72;;;4.55;;
51332;SDS011;37417;48.118;11.734;2023-09-12T08:22:41;5.68;;;4.13;;
51332;SDS011;37417;48.118;11.734;2023-09-12T08:25:26;5.07;;;4.18;;
51332;SDS011;37417;48.118;11.734;2023-09-12T08:28:12;5.07;;;4.25;;
51332;SDS011;37417;48.118;11.734;2023-09-12T08:30:58;13.40;;;4.03;;
51332;SDS011;37417;48.118;11.734;2023-09-12T08:33:43;4.63;;;4.00;;
51332;SDS011;37417;48.118;11.734;2023-09-12T08:36:32;5.60;;;4.70;;
51332;SDS011;37417;48.118;11.734;2023-09-12T08:39:22;6.35;;;4.78;;
51332;SDS011;37417;48.118;11.734;2023-09-12T08:42:11;9.45;;;4.15;;
51332;SDS011;37417;48.118;11.734;2023-09-12T08:44:58;4.68;;;3.80;;
51332;SDS011;37417;48.118;11.734;2023-09-12T08:47:45;5.15;;;4.63;;
51332;SDS011;37417;48.118;11.734;2023-09-12T08:50:31;5.32;;;4.40;;
51332;SDS011;37417;48.118;11.734;2023-09-12T08:53:19;5.95;;;3.97;;
51332;SDS011;37417;48.118;11.734;2023-09-12T08:56:08;3.92;;;3.63;;
51332;SDS011;37417;48.118;11.734;2023-09-12T08:58:55;4.85;;;4.22;;
51332;SDS011;37417;48.118;11.734;2023-09-12T09:01:42;4.40;;;4.00;;
51332;SDS011;37417;48.118;11.734;2023-09-12T09:04:29;6.75;;;4.55;;
51332;SDS011;37417;48.118;11.734;2023-09-12T09:07:16;5.32;;;4.43;;
51332;SDS011;37417;48.118;11.734;2023-09-12T09:10:04;5.80;;;4.00;;
51332;SDS011;37417;48.118;11.734;2023-09-12T09:12:51;5.95;;;4.25;;
51332;SDS011;37417;48.118;11.734;2023-09-12T09:15:36;6.45;;;4.35;;
51332;SDS011;37417;48.118;11.734;2023-09-12T09:18:26;10.13;;;4.82;;
51332;SDS011;37417;48.118;11.734;2023-09-12T09:21:18;3.83;;;3.42;;
51332;SDS011;37417;48.118;11.734;2023-09-12T09:24:08;7.70;;;4.63;;
51332;SDS011;37417;48.118;11.734;2023-09-12T09:29:46;5.40;;;4.55;;
51332;SDS011;37417;48.118;11.734;2023-09-12T09:32:33;3.72;;;3.42;;
51332;SDS011;37417;48.118;11.734;2023-09-12T09:35:19;5.00;;;4.25;;
51332;SDS011;37417;48.118;11.734;2023-09-12T09:38:05;4.40;;;3.70;;
51332;SDS011;37417;48.118;11.734;2023-09-12T09:40:51;9.77;;;4.25;;
51332;SDS011;37417;48.118;11.734;2023-09-12T09:43:37;5.30;;;3.90;;
51332;SDS011;37417;48.118;11.734;2023-09-12T09:46:23;4.68;;;4.28;;
51332;SDS011;37417;48.118;11.734;2023-09-12T09:49:15;6.32;;;4.20;;
51332;SDS011;37417;48.118;11.734;2023-09-12T09:52:04;4.90;;;4.03;;
51332;SDS011;37417;48.118;11.734;2023-09-12T09:54:50;6.30;;;3.97;;
51332;SDS011;37417;48.118;11.734;2023-09-12T09:57:38;6.32;;;4.05;;
51332;SDS011;37417;48.118;11.734;2023-09-12T10:00:24;4.25;;;3.85;;
51332;SDS011;37417;48.118;11.734;2023-09-12T10:03:11;5.18;;;3.95;;
51332;SDS011;37417;48.118;11.734;2023-09-12T10:05:58;4.22;;;3.65;;
51332;SDS011;37417;48.118;11.734;2023-09-12T10:11:35;5.68;;;3.40;;
51332;SDS011;37417;48.118;11.734;2023-09-12T10:14:23;4.47;;;3.70;;
51332;SDS011;37417;48.118;11.734;2023-09-12T10:17:12;6.88;;;4.22;;
51332;SDS011;37417;48.118;11.734;2023-09-12T10:20:05;7.05;;;3.85;;
51332;SDS011;37417;48.118;11.734;2023-09-12T10:25:54;4.65;;;4.25;;
51332;SDS011;37417;48.118;11.734;2023-09-12T10:28:41;4.60;;;3.50;;
51332;SDS011;37417;48.118;11.734;2023-09-12T10:31:28;4.45;;;4.05;;
51332;SDS011;37417;48.118;11.734;2023-09-12T10:34:15;4.05;;;3.35;;
51332;SDS011;37417;48.118;11.734;2023-09-12T10:37:01;6.15;;;3.53;;
51332;SDS011;37417;48.118;11.734;2023-09-12T10:39:50;3.60;;;3.30;;
51332;SDS011;37417;48.118;11.734;2023-09-12T10:42:39;3.13;;;2.83;;
51332;SDS011;37417;48.118;11.734;2023-09-12T10:45:24;3.85;;;2.95;;
51332;SDS011;37417;48.118;11.734;2023-09-12T10:48:11;3.20;;;2.90;;
51332;SDS011;37417;48.118;11.734;2023-09-12T10:51:00;6.50;;;2.95;;
51332;SDS011;37417;48.118;11.734;2023-09-12T10:53:46;4.75;;;3.08;;
51332;SDS011;37417;48.118;11.734;2023-09-12T10:56:35;4.97;;;3.33;;
51332;SDS011;37417;48.118;11.734;2023-09-12T10:59:20;4.05;;;3.15;;
51332;SDS011;37417;48.118;11.734;2023-09-12T11:02:30;5.43;;;3.47;;
51332;SDS011;37417;48.118;11.734;2023-09-12T11:08:14;3.78;;;3.10;;
51332;SDS011;37417;48.118;11.734;2023-09-12T11:14:06;6.32;;;3.85;;
51332;SDS011;37417;48.118;11.734;2023-09-12T11:17:12;3.83;;;3.10;;
51332;SDS011;37417;48.118;11.734;2023-09-12T11:20:07;3.30;;;3.00;;
51332;SDS011;37417;48.118;11.734;2023-09-12T11:22:56;7.15;;;3.42;;
51332;SDS011;37417;48.118;11.734;2023-09-12T11:26:02;4.75;;;3.97;;
51332;SDS011;37417;48.118;11.734;2023-09-12T11:28:51;8.40;;;3.15;;
51332;SDS011;37417;48.118;11.734;2023-09-12T11:31:36;4.20;;;3.28;;
51332;SDS011;37417;48.118;11.734;2023-09-12T11:34:27;8.85;;;3.25;;
51332;SDS011;37417;48.118;11.734;2023-09-12T11:37:22;3.45;;;3.15;;
51332;SDS011;37417;48.118;11.734;2023-09-12T11:42:58;4.18;;;3.42;;
51332;SDS011;37417;48.118;11.734;2023-09-12T11:45:44;6.25;;;3.30;;
51332;SDS011;37417;48.118;11.734;2023-09-12T11:48:30;5.95;;;3.25;;
51332;SDS011;37417;48.118;11.734;2023-09-12T11:51:16;4.93;;;3.15;;
51332;SDS011;37417;48.118;11.734;2023-09-12T11:54:02;6.22;;;3.17;;
51332;SDS011;37417;48.118;11.734;2023-09-12T11:56:49;5.57;;;3.20;;
51332;SDS011;37417;48.118;11.734;2023-09-12T11:59:42;3.63;;;3.20;;
51332;SDS011;37417;48.118;11.734;2023-09-12T12:02:33;3.88;;;3.42;;
51332;SDS011;37417;48.118;11.734;2023-09-12T12:05:19;4.13;;;3.40;;
51332;SDS011;37417;48.118;11.734;2023-09-12T12:08:08;7.55;;;3.60;;
51332;SDS011;37417;48.118;11.734;2023-09-12T12:13:43;2.85;;;2.63;;
51332;SDS011;37417;48.118;11.734;2023-09-12T12:16:29;5.50;;;3.58;;
51332;SDS011;37417;48.118;11.734;2023-09-12T12:19:15;3.78;;;2.88;;
51332;SDS011;37417;48.118;11.734;2023-09-12T12:22:01;4.07;;;3.28;;
51332;SDS011;37417;48.118;11.734;2023-09-12T12:24:46;4.32;;;3.17;;
51332;SDS011;37417;48.118;11.734;2023-09-12T12:27:35;4.72;;;3.33;;
51332;SDS011;37417;48.118;11.734;2023-09-12T12:30:21;3.70;;;3.33;;
51332;SDS011;37417;48.118;11.734;2023-09-12T12:33:08;3.50;;;3.20;;
51332;SDS011;37417;48.118;11.734;2023-09-12T12:36:00;3.72;;;3.35;;
51332;SDS011;37417;48.118;11.734;2023-09-12T12:38:48;4.57;;;3.63;;
51332;SDS011;37417;48.118;11.734;2023-09-12T12:41:35;8.85;;;3.65;;
51332;SDS011;37417;48.118;11.734;2023-09-12T12:44:21;3.78;;;3.38;;
51332;SDS011;37417;48.118;11.734;2023-09-12T12:47:08;5.13;;;3.50;;
51332;SDS011;37417;48.118;11.734;2023-09-12T12:49:55;4.35;;;3.53;;
51332;SDS011;37417;48.118;11.734;2023-09-12T12:52:41;4.85;;;3.50;;
51332;SDS011;37417;48.118;11.734;2023-09-12T12:55:27;5.43;;;3.10;;
51332;SDS011;37417;48.118;11.734;2023-09-12T12:58:12;3.58;;;3.22;;
51332;SDS011;37417;48.118;11.734;2023-09-12T13:00:58;7.65;;;3.72;;
51332;SDS011;37417;48.118;11.734;2023-09-12T13:03:44;3.25;;;2.97;;
51332;SDS011;37417;48.118;11.734;2023-09-12T13:06:30;4.47;;;3.63;;
51332;SDS011;37417;48.118;11.734;2023-09-12T13:09:20;4.15;;;3.25;;
51332;SDS011;37417;48.118;11.734;2023-09-12T13:12:06;3.35;;;3.03;;
51332;SDS011;37417;48.118;11.734;2023-09-12T13:14:53;4.70;;;3.22;;
51332;SDS011;37417;48.118;11.734;2023-09-12T13:17:40;3.47;;;3.20;;
51332;SDS011;37417;48.118;11.734;2023-09-12T13:20:26;3.67;;;3.38;;
51332;SDS011;37417;48.118;11.734;2023-09-12T13:23:12;3.60;;;3.30;;
51332;SDS011;37417;48.118;11.734;2023-09-12T13:25:57;3.30;;;3.00;;
51332;SDS011;37417;48.118;11.734;2023-09-12T13:28:43;3.97;;;3.15;;
51332;SDS011;37417;48.118;11.734;2023-09-12T13:31:29;4.00;;;3.00;;
51332;SDS011;37417;48.118;11.734;2023-09-12T13:34:14;6.65;;;3.47;;
51332;SDS011;37417;48.118;11.734;2023-09-12T13:37:00;10.55;;;3.13;;
51332;SDS011;37417;48.118;11.734;2023-09-12T13:39:45;3.83;;;3.33;;
51332;SDS011;37417;48.118;11.734;2023-09-12T13:42:34;5.22;;;3.42;;
51332;SDS011;37417;48.118;11.734;2023-09-12T13:45:20;6.57;;;3.10;;
51332;SDS011;37417;48.118;11.734;2023-09-12T13:48:06;3.97;;;2.90;;
51332;SDS011;37417;48.118;11.734;2023-09-12T13:50:52;3.20;;;2.90;;
51332;SDS011;37417;48.118;11.734;2023-09-12T13:53:37;5.65;;;3.00;;
51332;SDS011;37417;48.118;11.734;2023-09-12T13:56:23;4.80;;;2.85;;
51332;SDS011;37417;48.118;11.734;2023-09-12T13:59:09;8.00;;;2.85;;
51332;SDS011;37417;48.118;11.734;2023-09-12T14:01:54;3.35;;;3.08;;
51332;SDS011;37417;48.118;11.734;2023-09-12T14:04:40;4.32;;;3.20;;
51332;SDS011;37417;48.118;11.734;2023-09-12T14:07:26;4.75;;;2.97;;
51332;SDS011;37417;48.118;11.734;2023-09-12T14:10:12;5.63;;;3.08;;
51332;SDS011;37417;48.118;11.734;2023-09-12T14:12:58;3.90;;;2.70;;
51332;SDS011;37417;48.118;11.734;2023-09-12T14:15:44;4.72;;;3.22;;
51332;SDS011;37417;48.118;11.734;2023-09-12T14:18:31;3.63;;;3.33;;
51332;SDS011;37417;48.118;11.734;2023-09-12T14:21:17;3.22;;;2.97;;
51332;SDS011;37417;48.118;11.734;2023-09-12T14:24:04;12.02;;;3.65;;
51332;SDS011;37417;48.118;11.734;2023-09-12T14:26:51;7.18;;;3.47;;
51332;SDS011;37417;48.118;11.734;2023-09-12T14:29:36;5.72;;;3.55;;
51332;SDS011;37417;48.118;11.734;2023-09-12T14:32:22;3.63;;;3.33;;
51332;SDS011;37417;48.118;11.734;2023-09-12T14:35:08;7.65;;;3.85;;
51332;SDS011;37417;48.118;11.734;2023-09-12T14:37:54;3.35;;;2.97;;
51332;SDS011;37417;48.118;11.734;2023-09-12T14:40:40;3.45;;;3.15;;
51332;SDS011;37417;48.118;11.734;2023-09-12T14:43:25;5.35;;;3.60;;
51332;SDS011;37417;48.118;11.734;2023-09-12T14:46:13;9.68;;;4.00;;
51332;SDS011;37417;48.118;11.734;2023-09-12T14:48:59;3.88;;;3.47;;
51332;SDS011;37417;48.118;11.734;2023-09-12T14:51:44;3.65;;;3.35;;
51332;SDS011;37417;48.118;11.734;2023-09-12T14:54:30;4.18;;;3.78;;
51332;SDS011;37417;48.118;11.734;2023-09-12T14:57:15;3.80;;;3.42;;
51332;SDS011;37417;48.118;11.734;2023-09-12T15:00:02;4.32;;;3.88;;
51332;SDS011;37417;48.118;11.734;2023-09-12T15:02:47;4.47;;;3.47;;
51332;SDS011;37417;48.118;11.734;2023-09-12T15:05:33;4.75;;;3.70;;
51332;SDS011;37417;48.118;11.734;2023-09-12T15:08:19;4.30;;;3.08;;
51332;SDS011;37417;48.118;11.734;2023-09-12T15:11:04;3.85;;;3.45;;
51332;SDS011;37417;48.118;11.734;2023-09-12T15:13:51;3.63;;;3.33;;
51332;SDS011;37417;48.118;11.734;2023-09-12T15:16:36;8.25;;;3.40;;
51332;SDS011;37417;48.118;11.734;2023-09-12T15:19:22;6.75;;;3.08;;
51332;SDS011;37417;48.118;11.734;2023-09-12T15:22:08;4.38;;;3.60;;
51332;SDS011;37417;48.118;11.734;2023-09-12T15:24:53;5.35;;;3.47;;
51332;SDS011;37417;48.118;11.734;2023-09-12T15:27:39;4.15;;;3.47;;
51332;SDS011;37417;48.118;11.734;2023-09-12T15:30:25;5.35;;;3.08;;
51332;SDS011;37417;48.118;11.734;2023-09-12T15:33:10;3.75;;;3.38;;
51332;SDS011;37417;48.118;11.734;2023-09-12T15:35:56;5.00;;;3.80;;
51332;SDS011;37417;48.118;11.734;2023-09-12T15:38:42;9.27;;;3.63;;
51332;SDS011;37417;48.118;11.734;2023-09-12T15:41:28;4.65;;;3.03;;
51332;SDS011;37417;48.118;11.734;2023-09-12T15:44:13;4.85;;;3.47;;
51332;SDS011;37417;48.118;11.734;2023-09-12T15:46:59;4.72;;;3.00;;
51332;SDS011;37417;48.118;11.734;2023-09-12T15:49:45;6.68;;;3.38;;
51332;SDS011;37417;48.118;11.734;2023-09-12T15:52:31;3.50;;;2.90;;
51332;SDS011;37417;48.118;11.734;2023-09-12T15:55:22;6.43;;;3.78;;
51332;SDS011;37417;48.118;11.734;2023-09-12T15:58:07;5.82;;;3.45;;
51332;SDS011;37417;48.118;11.734;2023-09-12T16:00:54;4.15;;;3.75;;
51332;SDS011;37417;48.118;11.734;2023-09-12T16:03:40;7.28;;;3.90;;
51332;SDS011;37417;48.118;11.734;2023-09-12T16:06:27;10.98;;;3.28;;
51332;SDS011;37417;48.118;11.734;2023-09-12T16:09:12;8.48;;;3.75;;
51332;SDS011;37417;48.118;11.734;2023-09-12T16:11:58;5.05;;;3.60;;
51332;SDS011;37417;48.118;11.734;2023-09-12T16:14:44;4.90;;;4.15;;
51332;SDS011;37417;48.118;11.734;2023-09-12T16:17:29;7.03;;;4.07;;
51332;SDS011;37417;48.118;11.734;2023-09-12T16:20:15;4.45;;;4.05;;
51332;SDS011;37417;48.118;11.734;2023-09-12T16:23:01;5.03;;;4.40;;
51332;SDS011;37417;48.118;11.734;2023-09-12T16:25:47;9.88;;;4.45;;
51332;SDS011;37417;48.118;11.734;2023-09-12T16:28:36;4.95;;;4.32;;
51332;SDS011;37417;48.118;11.734;2023-09-12T16:31:21;8.02;;;4.22;;
51332;SDS011;37417;48.118;11.734;2023-09-12T16:34:07;9.00;;;4.47;;
51332;SDS011;37417;48.118;11.734;2023-09-12T16:36:53;9.57;;;4.78;;
51332;SDS011;37417;48.118;11.734;2023-09-12T16:39:38;7.53;;;4.68;;
51332;SDS011;37417;48.118;11.734;2023-09-12T16:42:27;5.45;;;4.40;;
51332;SDS011;37417;48.118;11.734;2023-09-12T16:45:15;5.82;;;3.90;;
51332;SDS011;37417;48.118;11.734;2023-09-12T16:48:01;9.20;;;4.40;;